Latest Weather Observations for Burnie Port

IDT60801

Issued at 1:02 pm EDT Monday 27 February 2017 (issued every 30 minutes, with the page automatically refreshed every 10 minutes)

About weather observations | Map of weather stations | Latest weather observations for TAS | Other Formats
Station Details ID: 091344 Name: BURNIE NTC AWS Lat: -41.05 Lon: 145.91 Height: 0.0 m
Data from the previous 72 hours. | See also: Recent months for locations in Tasmania
Date/Time
EDT
Temp
°C
App
Temp
°C
Dew
Point
°C
Rel
Hum
%
Delta-T
°C
Wind Press
QNH
hPa
Press
MSL
hPa
Rain since
9am
mm
Dir  Spd
km/h
Gust
km/h
Spd
kts
Gust
kts
27/12:30pm - - - - - ESE 26 32 14 17 1026.2 1026.2 -
27/12:00pm - - - - - ESE 28 33 15 18 1026.4 1026.4 -
27/11:30am - - - - - ESE 30 33 16 18 1026.6 1026.6 -
27/11:00am - - - - - ESE 30 33 16 18 1026.6 1026.6 -
27/10:30am - - - - - ESE 28 35 15 19 1026.7 1026.7 -
27/10:00am - - - - - ESE 30 37 16 20 1026.7 1026.7 -
27/09:30am - - - - - ESE 30 35 16 19 1026.6 1026.6 -
27/09:00am - - - - - SE 20 30 11 16 1026.4 1026.4 -
27/08:30am - - - - - SSE 20 24 11 13 1026.1 1026.1 -
27/08:00am - - - - - SSE 20 28 11 15 1025.8 1025.8 -
27/07:30am - - - - - S 20 26 11 14 1025.9 1025.9 -
27/07:00am - - - - - S 20 24 11 13 1025.8 1025.8 -
27/06:30am - - - - - S 20 22 11 12 1025.5 1025.5 -
27/06:00am - - - - - S 20 24 11 13 1025.4 1025.4 -
27/05:30am - - - - - S 20 26 11 14 1025.2 1025.2 -
27/05:00am - - - - - SSE 17 22 9 12 1025.0 1025.0 -
27/04:30am - - - - - S 17 22 9 12 1025.1 1025.1 -
27/04:00am - - - - - SE 20 32 11 17 1025.3 1025.3 -
27/03:30am - - - - - SSE 17 26 9 14 1025.5 1025.5 -
27/03:00am - - - - - SE 24 30 13 16 1025.5 1025.5 -
27/02:30am - - - - - SE 22 28 12 15 1025.7 1025.7 -
27/02:00am - - - - - SE 22 28 12 15 1025.8 1025.8 -
27/01:30am - - - - - ESE 24 28 13 15 1025.9 1025.9 -
27/01:00am - - - - - SE 22 26 12 14 1025.9 1025.9 -
27/12:30am - - - - - SE 19 26 10 14 1025.9 1025.9 -
27/12:00am - - - - - SE 20 26 11 14 1025.9 1025.9 -
 
Date/Time
EDT
Temp
°C
App
Temp
°C
Dew
Point
°C
Rel
Hum
%
Delta-T
°C
Wind Press
QNH
hPa
Press
MSL
hPa
Rain since
9am
mm
Dir  Spd
km/h
Gust
km/h
Spd
kts
Gust
kts
26/11:30pm - - - - - SSE 13 19 7 10 1026.0 1026.0 -
26/11:00pm - - - - - S 15 19 8 10 1026.0 1026.0 -
26/10:30pm - - - - - S 15 19 8 10 1026.2 1026.2 -
26/10:00pm - - - - - SSE 11 13 6 7 1026.1 1026.1 -
26/09:30pm - - - - - SSE 11 15 6 8 1026.0 1026.0 -
26/09:00pm - - - - - SSE 9 13 5 7 1025.8 1025.8 -
26/08:30pm - - - - - SE 13 15 7 8 1025.6 1025.6 -
26/08:00pm - - - - - SE 13 17 7 9 1025.3 1025.3 -
26/07:30pm - - - - - ESE 15 19 8 10 1025.1 1025.1 -
26/07:00pm - - - - - ESE 19 20 10 11 1025.1 1025.1 -
26/06:30pm - - - - - ESE 20 20 11 11 1025.0 1025.0 -
26/06:00pm - - - - - ESE 19 20 10 11 1024.9 1024.9 -
26/05:30pm - - - - - ESE 19 20 10 11 1024.9 1024.9 -
26/05:00pm - - - - - ESE 17 20 9 11 1024.7 1024.7 -
26/04:30pm - - - - - E 17 20 9 11 1025.0 1025.0 -
26/04:00pm - - - - - E 19 22 10 12 1025.2 1025.2 -
26/03:30pm - - - - - E 19 22 10 12 1025.4 1025.4 -
26/03:00pm - - - - - E 19 22 10 12 1025.8 1025.8 -
26/02:30pm - - - - - E 19 22 10 12 1026.0 1026.0 -
26/02:00pm - - - - - E 17 22 9 12 1026.2 1026.2 -
26/01:30pm - - - - - E 17 20 9 11 1026.3 1026.3 -
26/01:00pm - - - - - E 17 20 9 11 1026.5 1026.5 -
26/12:30pm - - - - - E 17 22 9 12 1026.8 1026.8 -
26/12:00pm - - - - - ESE 19 22 10 12 1027.0 1027.0 -
26/11:30am - - - - - ESE 19 24 10 13 1027.1 1027.1 -
26/11:00am - - - - - ESE 20 22 11 12 1027.1 1027.1 -
26/10:30am - - - - - ESE 20 24 11 13 1027.1 1027.1 -
26/10:00am - - - - - ESE 19 24 10 13 1026.9 1026.9 -
26/09:30am - - - - - SE 13 17 7 9 1026.8 1026.8 -
26/09:00am - - - - - SE 17 24 9 13 1026.5 1026.5 -
26/08:30am - - - - - ESE 15 19 8 10 1026.2 1026.2 -
26/08:00am - - - - - ESE 15 20 8 11 1026.0 1026.0 -
26/07:30am - - - - - SE 13 17 7 9 1025.8 1025.8 -
26/07:00am - - - - - ESE 15 19 8 10 1025.7 1025.7 -
26/06:30am - - - - - ENE 9 17 5 9 1025.2 1025.2 -
26/06:00am - - - - - NE 9 19 5 10 1025.1 1025.1 -
26/05:30am - - - - - NE 13 20 7 11 1024.4 1024.4 -
26/05:00am - - - - - NE 15 20 8 11 1024.8 1024.8 -
26/04:30am - - - - - NE 19 22 10 12 1024.6 1024.6 -
26/04:00am - - - - - NE 22 26 12 14 1024.6 1024.6 -
26/03:30am - - - - - NE 20 26 11 14 1025.0 1025.0 -
26/03:00am - - - - - NE 24 28 13 15 1025.0 1025.0 -
26/02:30am - - - - - NE 22 28 12 15 1025.1 1025.1 -
26/02:00am - - - - - NE 22 28 12 15 1025.4 1025.4 -
26/01:30am - - - - - NNE 20 24 11 13 1025.7 1025.7 -
26/01:00am - - - - - NNE 22 26 12 14 1026.1 1026.1 -
26/12:30am - - - - - SSE 9 17 5 9 1026.3 1026.3 -
26/12:00am - - - - - SSW 13 17 7 9 1026.4 1026.4 -
 
Date/Time
EDT
Temp
°C
App
Temp
°C
Dew
Point
°C
Rel
Hum
%
Delta-T
°C
Wind Press
QNH
hPa
Press
MSL
hPa
Rain since
9am
mm
Dir  Spd
km/h
Gust
km/h
Spd
kts
Gust
kts
25/11:30pm - - - - - SSW 9 15 5 8 1026.3 1026.3 -
25/11:00pm - - - - - S 11 13 6 7 1026.2 1026.2 -
25/10:30pm - - - - - SW 7 11 4 6 1026.2 1026.2 -
25/10:00pm - - - - - WSW 2 4 1 2 1026.3 1026.3 -
25/09:30pm - - - - - N 11 13 6 7 1026.1 1026.1 -
25/09:00pm - - - - - N 4 6 2 3 1025.7 1025.7 -
25/08:30pm - - - - - NW 6 7 3 4 1025.8 1025.8 -
25/08:00pm - - - - - NNW 7 9 4 5 1025.5 1025.5 -
25/07:30pm - - - - - NNW 7 11 4 6 1025.4 1025.4 -
25/07:00pm - - - - - NNW 7 9 4 5 1025.0 1025.0 -
25/06:30pm - - - - - N 7 9 4 5 1024.9 1024.9 -
25/06:00pm - - - - - N 7 9 4 5 1024.8 1024.8 -
25/05:30pm - - - - - N 9 13 5 7 1025.0 1025.0 -
25/05:00pm - - - - - NNE 13 15 7 8 1025.2 1025.2 -
25/04:30pm - - - - - N 11 15 6 8 1025.1 1025.1 -
25/04:00pm - - - - - N 11 13 6 7 1025.1 1025.1 -
25/03:30pm - - - - - N 9 11 5 6 1025.2 1025.2 -
25/03:00pm - - - - - NE 9 15 5 8 1025.5 1025.5 -
25/02:30pm - - - - - E 7 11 4 6 1026.1 1026.1 -
25/02:00pm - - - - - E 9 11 5 6 1026.1 1026.1 -
25/01:30pm - - - - - ESE 6 9 3 5 1026.2 1026.2 -
25/01:00pm - - - - - E 9 13 5 7 1026.0 1026.0 -
25/12:30pm - - - - - E 13 15 7 8 1026.0 1026.0 -
25/12:00pm - - - - - E 15 17 8 9 1026.1 1026.1 -
25/11:30am - - - - - E 15 19 8 10 1026.2 1026.2 -
25/11:00am - - - - - E 20 24 11 13 1026.1 1026.1 -
25/10:30am - - - - - E 19 20 10 11 1026.2 1026.2 -
25/10:00am - - - - - ESE 19 20 10 11 1026.1 1026.1 -
25/09:30am - - - - - ESE 15 19 8 10 1025.9 1025.9 -
25/09:00am - - - - - SE 9 13 5 7 1025.8 1025.8 -
25/08:30am - - - - - SSE 7 9 4 5 1025.6 1025.6 -
25/08:00am - - - - - SSE 13 17 7 9 1025.4 1025.4 -
25/07:30am - - - - - SSE 11 13 6 7 1024.9 1024.9 -
25/07:00am - - - - - S 15 19 8 10 1024.5 1024.5 -
25/06:30am - - - - - S 19 24 10 13 1024.1 1024.1 -
25/06:00am - - - - - S 20 28 11 15 1023.7 1023.7 -
25/05:30am - - - - - S 24 28 13 15 1023.4 1023.4 -
25/05:00am - - - - - SSW 26 32 14 17 1023.4 1023.4 -
25/04:30am - - - - - SSW 26 33 14 18 1023.4 1023.4 -
25/04:00am - - - - - SSW 20 28 11 15 1023.5 1023.5 -
25/03:30am - - - - - SSW 22 28 12 15 1023.3 1023.3 -
25/03:00am - - - - - SSW 19 24 10 13 1023.5 1023.5 -
25/02:30am - - - - - SSW 20 26 11 14 1023.6 1023.6 -
25/02:00am - - - - - SSW 24 28 13 15 1023.6 1023.6 -
25/01:30am - - - - - SSW 20 26 11 14 1023.5 1023.5 -
25/01:00am - - - - - SSW 17 26 9 14 1023.4 1023.4 -
25/12:30am - - - - - S 7 15 4 8 1023.5 1023.5 -

Other Formats:

Comma delimited format used in spreadsheet applications
http://www.bom.gov.au/fwo/IDT60801/IDT60801.95963.axf

JavaScript Object Notation format (JSON) in row-major order
http://www.bom.gov.au/fwo/IDT60801/IDT60801.95963.json